createdAt,value
2023-02-28T00:00:02.560Z,3.70
2023-02-28T00:02:31.438Z,3.97
2023-02-28T00:05:02.075Z,3.55
2023-02-28T00:07:29.669Z,3.45
2023-02-28T00:09:57.544Z,4.07
2023-02-28T00:12:26.014Z,2.95
2023-02-28T00:14:54.105Z,3.90
2023-02-28T00:17:22.081Z,4.70
2023-02-28T00:19:51.333Z,4.22
2023-02-28T00:22:19.397Z,3.50
2023-02-28T00:24:46.977Z,3.10
2023-02-28T00:27:14.602Z,3.60
2023-02-28T00:29:42.158Z,4.13
2023-02-28T00:32:09.872Z,3.35
2023-02-28T00:34:38.705Z,3.80
2023-02-28T00:37:08.867Z,4.10
2023-02-28T00:39:37.389Z,3.53
2023-02-28T00:42:05.244Z,4.50
2023-02-28T00:44:32.832Z,4.07
2023-02-28T00:47:01.112Z,3.95
2023-02-28T00:49:29.054Z,3.78
2023-02-28T00:51:57.125Z,3.33
2023-02-28T00:54:26.256Z,3.47
2023-02-28T00:56:53.808Z,3.38
2023-02-28T00:59:21.356Z,3.70
2023-02-28T01:01:49.290Z,3.33
2023-02-28T01:04:17.671Z,3.35
2023-02-28T01:06:45.282Z,3.58
2023-02-28T01:09:13.036Z,3.50
2023-02-28T01:11:44.921Z,3.08
2023-02-28T01:14:14.198Z,3.83
2023-02-28T01:16:41.759Z,3.20
2023-02-28T01:19:09.446Z,3.83
2023-02-28T01:21:37.189Z,3.78
2023-02-28T01:24:05.030Z,3.75
2023-02-28T01:26:32.756Z,3.13
2023-02-28T01:31:53.675Z,4.40
2023-02-28T01:34:21.244Z,3.55
2023-02-28T01:36:48.738Z,3.58
2023-02-28T01:45:02.150Z,3.33
2023-02-28T01:47:32.053Z,3.35
2023-02-28T01:50:00.178Z,3.38
2023-02-28T01:52:28.306Z,3.65
2023-02-28T01:54:57.323Z,3.80
2023-02-28T01:57:26.468Z,3.38
2023-02-28T01:59:56.785Z,3.83
2023-02-28T02:02:26.248Z,3.03
2023-02-28T02:04:55.489Z,2.88
2023-02-28T02:07:23.397Z,3.60
2023-02-28T02:09:50.981Z,3.97
2023-02-28T02:12:25.992Z,4.03
2023-02-28T02:15:00.818Z,2.67
2023-02-28T02:17:33.072Z,3.13
2023-02-28T02:20:18.289Z,3.40
2023-02-28T02:23:03.700Z,3.28
2023-02-28T02:25:34.014Z,3.45
2023-02-28T02:28:19.524Z,3.08
2023-02-28T02:31:15.591Z,3.70
2023-02-28T02:34:01.204Z,3.15
2023-02-28T02:36:33.310Z,3.55
2023-02-28T02:39:04.287Z,3.40
2023-02-28T02:41:36.415Z,3.67
2023-02-28T02:44:05.088Z,3.60
2023-02-28T02:46:36.031Z,3.30
2023-02-28T02:49:05.607Z,3.90
2023-02-28T02:51:35.000Z,3.40
2023-02-28T02:54:06.879Z,3.83
2023-02-28T02:56:35.658Z,3.53
2023-02-28T02:59:04.884Z,3.28
2023-02-28T03:01:33.371Z,3.85
2023-02-28T03:04:03.316Z,3.17
2023-02-28T03:06:30.882Z,2.90
2023-02-28T03:08:59.797Z,2.72
2023-02-28T03:11:27.821Z,3.47
2023-02-28T03:14:11.932Z,3.42
2023-02-28T03:16:57.909Z,3.22
2023-02-28T03:19:41.691Z,3.00
2023-02-28T03:22:16.143Z,3.17
2023-02-28T03:24:48.074Z,2.83
2023-02-28T03:27:19.886Z,2.92
2023-02-28T03:29:49.626Z,3.88
2023-02-28T03:32:22.681Z,2.97
2023-02-28T03:34:52.233Z,3.10
2023-02-28T03:37:21.849Z,3.30
2023-02-28T03:39:52.068Z,3.15
2023-02-28T03:42:22.682Z,3.42
2023-02-28T03:44:51.198Z,3.05
2023-02-28T03:47:24.334Z,3.00
2023-02-28T03:49:54.844Z,3.10
2023-02-28T03:52:24.984Z,3.03
2023-02-28T03:54:56.410Z,3.42
2023-02-28T03:57:28.181Z,3.03
2023-02-28T03:59:58.708Z,3.13
2023-02-28T04:02:26.229Z,3.63
2023-02-28T04:04:53.730Z,3.22
2023-02-28T04:07:21.283Z,4.00
2023-02-28T04:09:48.792Z,2.65
2023-02-28T04:12:17.694Z,4.70
2023-02-28T04:14:45.292Z,6.95
2023-02-28T04:17:12.883Z,4.05
2023-02-28T04:19:40.428Z,4.13
2023-02-28T04:22:08.189Z,4.60
2023-02-28T04:24:35.741Z,3.95
2023-02-28T04:27:03.514Z,4.07
2023-02-28T04:29:33.896Z,4.40
2023-02-28T04:32:02.357Z,4.28
2023-02-28T04:34:30.603Z,4.18
2023-02-28T04:37:12.080Z,3.58
2023-02-28T04:39:40.931Z,4.25
2023-02-28T04:42:08.573Z,3.65
2023-02-28T04:44:37.464Z,3.42
2023-02-28T04:47:05.046Z,3.70
2023-02-28T04:49:32.633Z,4.20
2023-02-28T04:52:00.184Z,3.83
2023-02-28T04:54:27.734Z,4.40
2023-02-28T04:56:55.823Z,3.65
2023-02-28T04:59:23.422Z,3.85
2023-02-28T05:01:52.363Z,4.20
2023-02-28T05:04:20.180Z,4.28
2023-02-28T05:06:47.854Z,4.85
2023-02-28T05:09:15.500Z,4.10
2023-02-28T05:11:43.731Z,4.47
2023-02-28T05:14:13.022Z,4.38
2023-02-28T05:16:40.538Z,3.53
2023-02-28T05:19:09.562Z,4.47
2023-02-28T05:21:38.223Z,3.28
2023-02-28T05:24:07.007Z,4.40
2023-02-28T05:26:37.142Z,4.38
2023-02-28T05:29:07.043Z,3.90
2023-02-28T05:31:34.607Z,5.22
2023-02-28T05:34:02.474Z,4.53
2023-02-28T05:36:31.526Z,3.80
2023-02-28T05:38:59.037Z,3.53
2023-02-28T05:41:27.473Z,4.38
2023-02-28T05:43:55.295Z,4.55
2023-02-28T05:46:23.055Z,4.28
2023-02-28T05:48:50.930Z,3.83
2023-02-28T05:51:19.020Z,4.75
2023-02-28T05:53:49.208Z,4.28
2023-02-28T05:56:16.867Z,4.43
2023-02-28T05:58:44.346Z,4.00
2023-02-28T06:01:23.835Z,4.30
2023-02-28T06:03:51.714Z,3.30
2023-02-28T06:06:19.323Z,4.07
2023-02-28T06:08:48.199Z,4.45
2023-02-28T06:11:15.825Z,4.20
2023-02-28T06:13:44.070Z,3.53
2023-02-28T06:16:12.500Z,3.78
2023-02-28T06:18:40.198Z,3.20
2023-02-28T06:21:07.876Z,4.20
2023-02-28T06:23:35.474Z,4.43
2023-02-28T06:26:04.431Z,4.13
2023-02-28T06:28:32.042Z,3.38
2023-02-28T06:30:59.733Z,4.07
2023-02-28T06:33:27.317Z,3.78
2023-02-28T06:35:54.977Z,4.07
2023-02-28T06:38:23.671Z,4.57
2023-02-28T06:40:55.317Z,4.75
2023-02-28T06:43:24.322Z,4.00
2023-02-28T06:45:52.198Z,3.90
2023-02-28T06:48:20.058Z,4.80
2023-02-28T06:50:48.804Z,4.18
2023-02-28T06:53:16.666Z,4.88
2023-02-28T06:55:44.440Z,4.07
2023-02-28T06:58:19.839Z,3.85
2023-02-28T07:00:52.732Z,4.45
2023-02-28T07:03:20.770Z,4.57
2023-02-28T07:06:13.578Z,4.68
2023-02-28T07:08:42.581Z,4.50
2023-02-28T07:11:10.196Z,3.53
2023-02-28T07:13:38.049Z,4.20
2023-02-28T07:24:45.077Z,3.28
2023-02-28T07:27:12.634Z,4.13
2023-02-28T07:29:40.265Z,4.13
2023-02-28T07:35:01.200Z,4.45
2023-02-28T07:37:28.757Z,4.10
2023-02-28T07:39:56.238Z,4.10
2023-02-28T07:45:40.025Z,3.80
2023-02-28T07:48:11.160Z,3.78
2023-02-28T07:50:38.817Z,3.78
2023-02-28T07:53:06.551Z,3.60
2023-02-28T07:55:34.186Z,4.03
2023-02-28T07:58:01.822Z,3.55
2023-02-28T08:00:30.986Z,4.60
2023-02-28T08:02:59.050Z,3.45
2023-02-28T08:05:28.246Z,3.58
2023-02-28T08:07:55.847Z,3.63
2023-02-28T08:10:23.420Z,3.17
2023-02-28T08:12:50.963Z,3.80
2023-02-28T08:15:18.906Z,6.07
2023-02-28T08:17:46.984Z,4.10
2023-02-28T08:20:14.615Z,4.25
2023-02-28T08:25:35.071Z,3.83
2023-02-28T08:28:02.611Z,3.70
2023-02-28T08:30:30.381Z,4.47
2023-02-28T08:38:42.830Z,3.80
2023-02-28T08:41:14.168Z,4.00
2023-02-28T08:43:42.361Z,3.67
2023-02-28T08:46:15.195Z,3.70
2023-02-28T08:48:43.036Z,4.10
2023-02-28T08:51:12.139Z,3.85
2023-02-28T08:53:40.476Z,4.55
2023-02-28T08:56:10.454Z,4.28
2023-02-28T08:58:38.400Z,4.18
2023-02-28T09:01:10.480Z,3.50
2023-02-28T09:03:38.365Z,4.60
2023-02-28T09:06:06.906Z,4.28
2023-02-28T09:08:34.563Z,3.92
2023-02-28T09:11:03.512Z,4.53
2023-02-28T09:13:33.281Z,4.35
2023-02-28T09:16:01.410Z,4.78
2023-02-28T09:18:29.132Z,4.72
2023-02-28T09:20:56.710Z,5.10
2023-02-28T09:23:24.471Z,4.88
2023-02-28T09:25:53.255Z,4.22
2023-02-28T09:28:21.294Z,4.85
2023-02-28T09:30:51.166Z,5.68
2023-02-28T09:33:21.762Z,5.63
2023-02-28T09:35:49.566Z,4.75
2023-02-28T09:38:17.511Z,5.15
2023-02-28T09:40:49.167Z,5.15
2023-02-28T09:43:18.652Z,4.85
2023-02-28T09:45:50.658Z,5.40
2023-02-28T09:48:22.084Z,5.55
2023-02-28T09:50:52.069Z,7.03
2023-02-28T09:53:22.237Z,5.25
2023-02-28T09:55:51.886Z,5.32
2023-02-28T09:58:22.904Z,4.72
2023-02-28T10:00:53.629Z,4.80
2023-02-28T10:03:27.910Z,5.40
2023-02-28T10:08:27.135Z,5.57
2023-02-28T10:10:57.559Z,4.38
2023-02-28T10:13:27.919Z,4.75
2023-02-28T10:15:57.659Z,4.15
2023-02-28T10:18:27.544Z,4.88
2023-02-28T10:20:56.803Z,6.20
2023-02-28T10:23:26.829Z,3.90
2023-02-28T10:25:59.163Z,4.32
2023-02-28T10:28:27.474Z,3.83
2023-02-28T10:30:56.234Z,4.60
2023-02-28T10:33:27.258Z,3.67
2023-02-28T10:35:54.972Z,4.18
2023-02-28T10:38:23.453Z,3.80
2023-02-28T10:40:51.065Z,4.35
2023-02-28T10:43:22.799Z,3.80
2023-02-28T10:45:59.759Z,3.67
2023-02-28T10:48:34.332Z,3.45
2023-02-28T10:51:02.628Z,3.67
2023-02-28T10:53:36.102Z,3.97
2023-02-28T10:56:09.816Z,4.18
2023-02-28T10:58:46.986Z,3.97
2023-02-28T11:01:16.510Z,5.90
2023-02-28T11:03:45.517Z,4.38
2023-02-28T11:06:17.702Z,3.40
2023-02-28T11:08:50.095Z,3.28
2023-02-28T11:11:19.076Z,3.05
2023-02-28T11:13:47.950Z,3.83
2023-02-28T11:16:20.009Z,3.08
2023-02-28T11:18:51.909Z,2.95
2023-02-28T11:21:24.401Z,3.20
2023-02-28T11:23:53.732Z,3.38
2023-02-28T11:26:36.230Z,3.55
2023-02-28T11:29:08.661Z,3.60
2023-02-28T11:31:36.274Z,3.53
2023-02-28T11:34:23.112Z,3.72
2023-02-28T11:36:50.661Z,4.32
2023-02-28T11:39:18.740Z,4.10
2023-02-28T11:41:56.336Z,3.80
2023-02-28T11:44:30.145Z,3.72
2023-02-28T11:47:00.272Z,3.60
2023-02-28T11:49:33.097Z,3.83
2023-02-28T11:52:04.045Z,3.70
2023-02-28T11:54:46.398Z,3.53
2023-02-28T11:57:20.454Z,4.00
2023-02-28T11:59:52.007Z,3.45
2023-02-28T12:02:24.583Z,4.38
2023-02-28T12:04:59.325Z,4.25
2023-02-28T12:07:33.252Z,3.92
2023-02-28T12:10:06.254Z,4.20
2023-02-28T12:12:40.877Z,3.92
2023-02-28T12:15:19.189Z,4.15
2023-02-28T12:17:56.179Z,4.38
2023-02-28T12:20:28.564Z,4.15
2023-02-28T12:23:03.164Z,4.13
2023-02-28T12:25:41.899Z,3.90
2023-02-28T12:28:11.708Z,4.45
2023-02-28T12:30:40.860Z,4.65
2023-02-28T12:33:09.813Z,4.32
2023-02-28T12:35:40.794Z,4.68
2023-02-28T12:38:12.119Z,4.43
2023-02-28T12:40:45.293Z,4.35
2023-02-28T12:43:14.548Z,4.80
2023-02-28T12:45:43.928Z,4.50
2023-02-28T12:48:14.779Z,5.07
2023-02-28T12:50:44.185Z,5.03
2023-02-28T12:53:17.340Z,4.15
2023-02-28T12:55:47.939Z,4.45
2023-02-28T12:58:17.716Z,4.72
2023-02-28T13:00:51.292Z,4.00
2023-02-28T13:03:46.566Z,4.43
2023-02-28T13:06:24.747Z,4.45
2023-02-28T13:09:01.452Z,4.40
2023-02-28T13:11:31.348Z,4.50
2023-02-28T13:14:05.985Z,4.60
2023-02-28T13:16:54.905Z,3.70
2023-02-28T13:19:24.161Z,3.95
2023-02-28T13:21:53.575Z,4.10
2023-02-28T13:24:45.112Z,4.20
2023-02-28T13:27:33.441Z,4.28
2023-02-28T13:30:01.393Z,4.30
2023-02-28T13:32:41.209Z,4.70
2023-02-28T13:35:16.172Z,4.43
2023-02-28T13:37:46.651Z,4.72
2023-02-28T13:40:41.462Z,4.53
2023-02-28T13:43:09.968Z,4.70
2023-02-28T13:45:39.486Z,4.93
2023-02-28T13:48:18.061Z,4.40
2023-02-28T13:50:46.009Z,4.18
2023-02-28T13:53:32.198Z,5.22
2023-02-28T13:56:02.626Z,4.30
2023-02-28T13:58:41.364Z,4.65
2023-02-28T14:01:15.480Z,5.18
2023-02-28T14:04:00.303Z,4.93
2023-02-28T14:06:29.452Z,4.57
2023-02-28T14:09:00.553Z,4.53
2023-02-28T14:11:32.609Z,4.78
2023-02-28T14:14:00.544Z,5.78
2023-02-28T14:16:31.086Z,5.47
2023-02-28T14:19:01.031Z,5.65
2023-02-28T14:21:30.124Z,6.00
2023-02-28T14:24:12.653Z,5.10
2023-02-28T14:26:54.379Z,5.53
2023-02-28T14:29:32.145Z,5.53
2023-02-28T14:32:00.625Z,4.60
2023-02-28T14:34:37.597Z,5.60
2023-02-28T14:37:05.707Z,5.20
2023-02-28T14:39:33.846Z,5.65
2023-02-28T14:42:05.948Z,5.22
2023-02-28T14:44:33.489Z,5.40
2023-02-28T14:47:05.301Z,5.30
2023-02-28T14:49:34.314Z,6.43
2023-02-28T14:52:07.458Z,5.97
2023-02-28T14:54:35.355Z,5.13
2023-02-28T14:57:04.629Z,5.57
2023-02-28T14:59:34.050Z,5.55
2023-02-28T15:02:18.092Z,5.25
2023-02-28T15:04:45.650Z,5.70
2023-02-28T15:07:16.756Z,5.88
2023-02-28T15:09:46.247Z,5.82
2023-02-28T15:12:17.246Z,5.60
2023-02-28T15:14:46.491Z,5.85
2023-02-28T15:17:21.715Z,5.45
2023-02-28T15:19:50.995Z,5.95
2023-02-28T15:22:19.774Z,5.95
2023-02-28T15:24:48.940Z,5.47
2023-02-28T15:27:23.864Z,6.15
2023-02-28T15:29:53.085Z,7.00
2023-02-28T15:32:25.493Z,6.15
2023-02-28T15:34:53.258Z,6.70
2023-02-28T15:37:32.014Z,6.45
2023-02-28T15:40:06.021Z,6.13
2023-02-28T15:42:34.946Z,6.22
2023-02-28T15:45:02.487Z,6.53
2023-02-28T15:47:31.349Z,5.60
2023-02-28T15:50:00.323Z,6.15
2023-02-28T15:52:30.581Z,6.75
2023-02-28T15:54:59.006Z,5.55
2023-02-28T15:57:27.982Z,6.00
2023-02-28T15:59:58.214Z,6.35
2023-02-28T16:02:33.031Z,7.32
2023-02-28T16:05:18.883Z,7.63
2023-02-28T16:07:46.813Z,6.93
2023-02-28T16:10:16.064Z,6.07
2023-02-28T16:12:43.910Z,6.63
2023-02-28T16:15:23.074Z,7.30
2023-02-28T16:17:51.364Z,6.57
2023-02-28T16:20:20.502Z,5.70
2023-02-28T16:22:48.019Z,5.85
2023-02-28T16:25:17.570Z,5.97
2023-02-28T16:27:45.725Z,7.13
2023-02-28T16:30:20.311Z,6.65
2023-02-28T16:32:48.719Z,6.28
2023-02-28T16:35:16.520Z,7.28
2023-02-28T16:37:44.153Z,7.75
2023-02-28T16:40:18.773Z,6.57
2023-02-28T16:42:47.587Z,5.78
2023-02-28T16:45:21.296Z,6.65
2023-02-28T16:47:49.166Z,8.38
2023-02-28T16:50:17.457Z,6.00
2023-02-28T16:52:45.016Z,17.63
2023-02-28T16:55:12.673Z,8.57
2023-02-28T16:57:40.892Z,7.40
2023-02-28T17:00:09.383Z,6.93
2023-02-28T17:02:41.299Z,6.55
2023-02-28T17:05:11.179Z,7.43
2023-02-28T17:07:39.008Z,6.75
2023-02-28T17:10:13.482Z,6.97
2023-02-28T17:12:41.034Z,6.63
2023-02-28T17:15:09.031Z,7.00
2023-02-28T17:17:41.387Z,7.00
2023-02-28T17:20:09.819Z,8.45
2023-02-28T17:22:37.637Z,7.43
2023-02-28T17:25:05.722Z,8.02
2023-02-28T17:27:33.376Z,7.10
2023-02-28T17:30:00.921Z,7.70
2023-02-28T17:32:28.710Z,6.22
2023-02-28T17:34:57.620Z,7.10
2023-02-28T17:37:25.255Z,7.68
2023-02-28T17:39:52.858Z,6.55
2023-02-28T17:42:21.174Z,7.30
2023-02-28T17:44:48.755Z,7.75
2023-02-28T17:47:16.373Z,7.55
2023-02-28T17:49:43.882Z,7.60
2023-02-28T17:52:12.769Z,7.70
2023-02-28T17:54:40.322Z,8.88
2023-02-28T17:57:07.878Z,7.55
2023-02-28T17:59:35.565Z,8.40
2023-02-28T18:02:03.372Z,7.85
2023-02-28T18:04:30.938Z,9.27
2023-02-28T18:07:01.116Z,7.78
2023-02-28T18:09:30.071Z,9.48
2023-02-28T18:11:57.899Z,8.65
2023-02-28T18:14:26.676Z,8.32
2023-02-28T18:16:55.197Z,8.30
2023-02-28T18:19:22.881Z,8.32
2023-02-28T18:21:51.629Z,9.13
2023-02-28T18:24:19.972Z,8.70
2023-02-28T18:26:49.123Z,8.10
2023-02-28T18:29:18.148Z,8.88
2023-02-28T18:31:45.677Z,8.45
2023-02-28T18:34:13.381Z,9.70
2023-02-28T18:36:47.508Z,9.52
2023-02-28T18:39:15.298Z,9.43
2023-02-28T18:41:43.250Z,8.60
2023-02-28T18:44:19.999Z,9.75
2023-02-28T18:46:48.482Z,7.63
2023-02-28T18:49:16.239Z,9.25
2023-02-28T18:51:45.536Z,8.45
2023-02-28T18:54:13.890Z,8.07
2023-02-28T18:56:41.538Z,8.00
2023-02-28T18:59:09.248Z,8.90
2023-02-28T19:01:38.245Z,9.05
2023-02-28T19:04:06.594Z,7.95
2023-02-28T19:06:34.943Z,8.02
2023-02-28T19:09:06.774Z,8.43
2023-02-28T19:11:36.567Z,8.25
2023-02-28T19:14:06.545Z,8.20
2023-02-28T19:16:34.421Z,6.80
2023-02-28T19:19:03.548Z,8.50
2023-02-28T19:21:31.332Z,7.85
2023-02-28T19:24:00.460Z,7.75
2023-02-28T19:26:28.379Z,9.15
2023-02-28T19:28:56.465Z,7.53
2023-02-28T19:31:25.853Z,9.52
2023-02-28T19:33:53.776Z,8.30
2023-02-28T19:36:23.159Z,7.80
2023-02-28T19:38:51.036Z,8.48
2023-02-28T19:41:19.130Z,8.02
2023-02-28T19:43:47.978Z,7.35
2023-02-28T19:46:16.205Z,7.00
2023-02-28T19:48:44.950Z,6.95
2023-02-28T19:51:13.434Z,7.35
2023-02-28T19:53:43.058Z,6.53
2023-02-28T19:56:10.845Z,6.15
2023-02-28T19:58:39.007Z,7.88
2023-02-28T20:01:10.523Z,6.82
2023-02-28T20:03:38.182Z,7.45
2023-02-28T20:06:07.651Z,7.38
2023-02-28T20:08:37.315Z,6.90
2023-02-28T20:11:06.749Z,7.05
2023-02-28T20:13:34.518Z,7.95
2023-02-28T20:16:02.743Z,8.50
2023-02-28T20:18:30.297Z,7.90
2023-02-28T20:20:57.953Z,7.57
2023-02-28T20:23:25.655Z,8.00
2023-02-28T20:25:53.226Z,7.43
2023-02-28T20:28:22.494Z,7.40
2023-02-28T20:30:50.096Z,7.15
2023-02-28T20:33:17.770Z,7.18
2023-02-28T20:35:45.712Z,7.80
2023-02-28T20:38:13.841Z,7.47
2023-02-28T20:40:41.965Z,6.90
2023-02-28T20:43:12.089Z,6.50
2023-02-28T20:45:40.932Z,7.40
2023-02-28T20:48:08.447Z,6.85
2023-02-28T20:50:38.423Z,8.60
2023-02-28T20:53:05.909Z,7.60
2023-02-28T20:55:33.417Z,7.00
2023-02-28T20:58:00.941Z,7.15
2023-02-28T21:00:28.470Z,7.72
2023-02-28T21:02:58.815Z,8.52
2023-02-28T21:05:26.393Z,7.07
2023-02-28T21:07:53.868Z,7.82
2023-02-28T21:10:21.420Z,7.93
2023-02-28T21:12:53.556Z,8.30
2023-02-28T21:15:22.793Z,7.55
2023-02-28T21:17:50.311Z,7.95
2023-02-28T21:20:22.879Z,8.02
2023-02-28T21:22:50.448Z,8.48
2023-02-28T21:25:17.984Z,7.05
2023-02-28T21:27:45.494Z,6.97
2023-02-28T21:30:13.352Z,7.90
2023-02-28T21:32:40.848Z,6.97
2023-02-28T21:35:08.571Z,7.88
2023-02-28T21:37:39.730Z,7.03
2023-02-28T21:40:08.412Z,7.78
2023-02-28T21:42:37.017Z,7.40
2023-02-28T21:45:04.709Z,5.75
2023-02-28T21:47:32.426Z,6.35
2023-02-28T21:49:59.966Z,7.07
2023-02-28T21:52:27.625Z,7.88
2023-02-28T21:54:56.499Z,7.25
2023-02-28T21:57:24.087Z,8.02
2023-02-28T21:59:51.742Z,7.75
2023-02-28T22:02:19.290Z,6.25
2023-02-28T22:04:47.024Z,6.90
2023-02-28T22:07:14.619Z,6.97
2023-02-28T22:09:42.154Z,6.40
2023-02-28T22:12:16.955Z,6.10
2023-02-28T22:14:45.648Z,6.15
2023-02-28T22:17:13.151Z,7.43
2023-02-28T22:19:40.709Z,7.53
2023-02-28T22:22:08.621Z,7.45
2023-02-28T22:24:36.164Z,8.10
2023-02-28T22:27:03.758Z,7.22
2023-02-28T22:29:32.693Z,6.65
2023-02-28T22:32:00.319Z,7.45
2023-02-28T22:34:28.341Z,8.43
2023-02-28T22:36:55.998Z,7.50
2023-02-28T22:39:23.489Z,7.68
2023-02-28T22:41:51.034Z,8.50
2023-02-28T22:44:18.610Z,8.35
2023-02-28T22:46:47.472Z,8.65
2023-02-28T22:49:14.987Z,7.57
2023-02-28T22:51:42.508Z,6.90
2023-02-28T22:54:10.359Z,6.60
2023-02-28T22:56:37.856Z,7.10
2023-02-28T22:59:05.388Z,6.90
2023-02-28T23:01:33.795Z,7.63
2023-02-28T23:04:02.857Z,7.60
2023-02-28T23:06:31.802Z,7.22
2023-02-28T23:09:01.201Z,7.25
2023-02-28T23:11:30.197Z,7.90
2023-02-28T23:14:01.084Z,7.65
2023-02-28T23:16:29.903Z,7.82
2023-02-28T23:18:58.102Z,7.15
2023-02-28T23:21:27.543Z,6.72
2023-02-28T23:23:55.244Z,6.90
2023-02-28T23:26:23.296Z,7.35
2023-02-28T23:28:50.869Z,6.78
2023-02-28T23:31:18.506Z,7.65
2023-02-28T23:33:45.989Z,6.25
2023-02-28T23:36:14.600Z,5.70
2023-02-28T23:38:44.227Z,7.22
2023-02-28T23:41:12.350Z,7.28
2023-02-28T23:43:40.748Z,7.25
2023-02-28T23:46:09.454Z,7.18
2023-02-28T23:48:36.983Z,6.70
2023-02-28T23:51:08.632Z,7.65
2023-02-28T23:53:37.195Z,6.97
2023-02-28T23:56:06.857Z,8.45
2023-02-28T23:58:35.049Z,7.70
